Time;durP1;ratioP1;P1;durP2;ratioP2;P2;SDS_P1;SDS_P2;PMS_P1;PMS_P2;Temp;Humidity;BMP_temperature;BMP_pressure;BME280_temperature;BME280_humidity;BME280_pressure;Samples;Min_cycle;Max_cycle;Signal;HPM_P1;HPM_P2
2023/05/17 00:01:54;;;;;;;1.80;1.70;;;5.60;99.90;;;;;;5073298;28;20676;-68
2023/05/17 00:04:20;;;;;;;1.63;1.20;;;5.50;99.90;;;;;;5073108;28;20201;-68
2023/05/17 00:06:47;;;;;;;2.20;1.60;;;5.50;99.90;;;;;;5072066;28;20231;-68
2023/05/17 00:09:14;;;;;;;1.27;1.17;;;5.50;99.90;;;;;;5043723;28;20732;-68
2023/05/17 00:11:42;;;;;;;1.40;1.10;;;5.50;99.90;;;;;;5039829;28;20669;-68
2023/05/17 00:14:08;;;;;;;3.95;1.65;;;5.50;99.90;;;;;;5038483;28;20208;-68
2023/05/17 00:16:35;;;;;;;3.97;1.45;;;5.60;99.90;;;;;;5039077;28;20218;-69
2023/05/17 00:19:02;;;;;;;1.17;1.08;;;5.60;99.90;;;;;;5037632;28;20198;-69
2023/05/17 00:21:28;;;;;;;1.63;1.30;;;5.70;99.90;;;;;;5057801;28;20204;-68
2023/05/17 00:23:55;;;;;;;2.22;1.42;;;5.70;99.90;;;;;;5072922;28;20200;-69
2023/05/17 00:26:22;;;;;;;1.50;1.40;;;5.80;99.90;;;;;;5072744;28;20274;-68
2023/05/17 00:28:50;;;;;;;1.20;1.00;;;5.80;99.90;;;;;;5072485;28;20200;-68
2023/05/17 00:31:16;;;;;;;1.70;1.30;;;5.90;99.90;;;;;;5072825;28;20576;-68
2023/05/17 00:33:43;;;;;;;1.65;1.00;;;5.90;99.90;;;;;;5072407;28;20197;-68
2023/05/17 00:36:10;;;;;;;3.35;1.30;;;5.90;99.90;;;;;;5072388;28;20227;-68
2023/05/17 00:38:37;;;;;;;4.45;1.58;;;5.90;99.90;;;;;;5072299;28;20220;-68
2023/05/17 00:41:03;;;;;;;2.58;1.30;;;6.00;99.90;;;;;;5072748;28;20546;-69
2023/05/17 00:43:30;;;;;;;4.88;1.30;;;6.00;99.90;;;;;;5072445;28;20204;-68
2023/05/17 00:45:58;;;;;;;1.40;1.10;;;6.10;99.90;;;;;;5072019;28;20201;-69
2023/05/17 00:48:25;;;;;;;2.65;1.33;;;6.10;99.90;;;;;;5072024;28;20197;-69
2023/05/17 00:50:53;;;;;;;1.50;1.40;;;6.10;99.90;;;;;;5070871;28;20634;-68
2023/05/17 00:53:20;;;;;;;1.00;0.90;;;6.20;99.90;;;;;;5072590;28;20204;-68
2023/05/17 00:55:47;;;;;;;3.50;1.30;;;6.20;99.90;;;;;;5071911;28;20226;-68
2023/05/17 00:58:14;;;;;;;1.50;1.23;;;6.30;99.90;;;;;;5072335;28;20228;-69
2023/05/17 01:00:41;;;;;;;3.30;1.20;;;6.30;99.90;;;;;;5071848;28;20205;-68
2023/05/17 01:03:09;;;;;;;4.35;1.38;;;6.40;99.90;;;;;;5072348;28;20208;-69
2023/05/17 01:05:36;;;;;;;1.85;1.30;;;6.40;99.90;;;;;;5071593;28;20246;-69
2023/05/17 01:08:02;;;;;;;3.45;1.27;;;6.40;99.90;;;;;;5072224;28;20209;-69
2023/05/17 01:10:36;;;;;;;1.65;1.00;;;6.50;99.90;;;;;;5072201;28;20200;-69
2023/05/17 01:13:09;;;;;;;2.63;1.30;;;6.50;99.90;;;;;;5072187;28;20224;-69
2023/05/17 01:15:41;;;;;;;2.55;1.27;;;6.50;99.90;;;;;;5071523;28;20201;-69
2023/05/17 01:18:17;;;;;;;1.20;1.10;;;6.50;99.90;;;;;;5072076;28;20223;-69
2023/05/17 01:20:46;;;;;;;1.55;1.33;;;6.60;99.90;;;;;;5071348;28;20200;-69
2023/05/17 01:23:30;;;;;;;1.30;0.95;;;6.60;99.90;;;;;;5071847;28;20203;-69
2023/05/17 01:26:06;;;;;;;2.30;1.20;;;6.60;99.90;;;;;;5071472;28;20667;-69
2023/05/17 01:28:38;;;;;;;1.48;0.93;;;6.60;99.90;;;;;;5071696;28;20203;-69
2023/05/17 01:31:05;;;;;;;2.25;1.52;;;6.50;99.90;;;;;;5071665;28;20193;-69
2023/05/17 01:33:33;;;;;;;2.05;1.35;;;6.50;99.90;;;;;;5071509;28;20821;-69
2023/05/17 01:36:00;;;;;;;1.23;1.10;;;6.50;99.90;;;;;;5071317;28;20200;-69
2023/05/17 01:38:27;;;;;;;2.55;1.25;;;6.50;99.90;;;;;;5071570;28;20212;-69
2023/05/17 01:40:58;;;;;;;1.90;1.13;;;6.50;99.90;;;;;;5071175;28;20596;-69
2023/05/17 01:43:31;;;;;;;1.95;1.45;;;6.50;99.90;;;;;;5056195;28;20209;-69
2023/05/17 01:46:07;;;;;;;3.30;1.17;;;6.40;99.90;;;;;;5051078;28;20262;-69
2023/05/17 01:48:39;;;;;;;1.65;1.25;;;6.40;99.90;;;;;;5051275;28;20200;-69
2023/05/17 01:51:07;;;;;;;2.85;1.40;;;6.50;99.90;;;;;;5051469;28;20251;-68
2023/05/17 01:53:39;;;;;;;2.70;1.25;;;6.50;99.90;;;;;;5051086;28;20217;-68
2023/05/17 01:56:10;;;;;;;2.00;1.50;;;6.50;99.90;;;;;;5064124;28;20196;-68
2023/05/17 01:58:43;;;;;;;1.20;1.10;;;6.50;99.90;;;;;;5070926;28;20248;-68
2023/05/17 02:01:12;;;;;;;3.95;1.40;;;6.50;99.90;;;;;;5071002;28;20204;-69
2023/05/17 02:03:39;;;;;;;1.20;0.93;;;6.40;99.90;;;;;;5070717;28;20200;-69
2023/05/17 02:06:06;;;;;;;1.80;1.23;;;6.40;99.90;;;;;;5070840;28;20207;-69
2023/05/17 02:08:33;;;;;;;2.55;1.40;;;6.40;99.90;;;;;;5071097;28;20227;-69
2023/05/17 02:10:59;;;;;;;1.10;1.00;;;6.40;99.90;;;;;;5042823;28;20623;-69
2023/05/17 02:13:26;;;;;;;1.83;1.30;;;6.40;99.90;;;;;;5051020;28;20201;-69
2023/05/17 02:15:52;;;;;;;1.30;1.20;;;6.40;99.90;;;;;;5052867;28;20212;-69
2023/05/17 02:18:21;;;;;;;1.65;1.10;;;6.30;99.90;;;;;;5070809;28;20220;-69
2023/05/17 02:20:47;;;;;;;1.13;0.95;;;6.30;99.90;;;;;;5063650;28;20288;-68
2023/05/17 02:23:14;;;;;;;1.50;1.10;;;6.30;99.90;;;;;;5050853;28;20208;-68
2023/05/17 02:25:41;;;;;;;3.53;1.35;;;6.20;99.90;;;;;;5050117;28;20201;-69
2023/05/17 02:28:07;;;;;;;5.32;1.20;;;6.20;99.90;;;;;;5050666;28;20220;-69
2023/05/17 02:30:34;;;;;;;2.97;1.20;;;6.20;99.90;;;;;;5058802;28;20215;-69
2023/05/17 02:33:01;;;;;;;2.72;1.33;;;6.20;99.90;;;;;;5042336;28;20280;-69
2023/05/17 02:35:29;;;;;;;1.48;1.30;;;6.20;99.90;;;;;;5050245;28;20209;-69
2023/05/17 02:37:55;;;;;;;4.18;1.67;;;6.10;99.90;;;;;;5050098;28;20231;-69
2023/05/17 02:40:22;;;;;;;1.25;1.13;;;6.10;99.90;;;;;;5050460;28;20205;-68
2023/05/17 02:42:49;;;;;;;4.55;1.42;;;6.10;99.90;;;;;;5060318;28;20225;-69
2023/05/17 02:45:15;;;;;;;1.60;1.33;;;6.10;99.90;;;;;;5070054;28;20622;-68
2023/05/17 02:47:42;;;;;;;4.45;1.30;;;6.10;99.90;;;;;;5069930;28;20242;-69
2023/05/17 02:50:09;;;;;;;1.45;1.15;;;6.10;99.90;;;;;;5070173;28;20231;-68
2023/05/17 02:52:37;;;;;;;1.50;1.38;;;6.10;99.90;;;;;;5070029;28;20204;-69
2023/05/17 02:55:05;;;;;;;1.80;1.33;;;6.00;99.90;;;;;;5069787;28;20204;-70
2023/05/17 02:57:31;;;;;;;2.55;1.42;;;6.00;99.90;;;;;;5070122;28;20223;-69
2023/05/17 02:59:58;;;;;;;3.10;1.50;;;6.00;99.90;;;;;;5069708;28;20196;-69
2023/05/17 03:02:25;;;;;;;1.85;1.20;;;6.00;99.90;;;;;;5070288;28;20204;-69
2023/05/17 03:04:52;;;;;;;1.98;1.23;;;5.90;99.90;;;;;;5069376;28;20215;-69
2023/05/17 03:07:19;;;;;;;4.15;1.58;;;5.90;99.90;;;;;;5070323;28;20223;-69
2023/05/17 03:09:47;;;;;;;2.20;1.35;;;5.90;99.90;;;;;;5069651;28;20196;-69
2023/05/17 03:12:13;;;;;;;3.35;1.30;;;5.80;99.90;;;;;;5069619;28;20549;-69
2023/05/17 03:14:40;;;;;;;1.85;1.30;;;5.80;99.90;;;;;;5061395;28;20204;-69
2023/05/17 03:17:07;;;;;;;2.97;1.63;;;5.80;99.90;;;;;;5069733;28;20220;-69
2023/05/17 03:19:33;;;;;;;7.38;1.83;;;5.70;99.90;;;;;;5069782;28;20219;-69
2023/05/17 03:22:00;;;;;;;1.90;1.40;;;5.70;99.90;;;;;;5069634;28;20197;-69
2023/05/17 03:24:27;;;;;;;1.90;1.50;;;5.70;99.90;;;;;;5069676;28;20208;-69
2023/05/17 03:26:55;;;;;;;1.80;1.30;;;5.70;99.90;;;;;;5069517;28;20225;-69
2023/05/17 03:29:22;;;;;;;2.95;1.45;;;5.60;99.90;;;;;;5069772;28;20211;-69
2023/05/17 03:31:48;;;;;;;1.20;1.10;;;5.60;99.90;;;;;;5069641;28;20196;-69
2023/05/17 03:34:15;;;;;;;1.52;1.33;;;5.60;99.90;;;;;;5064578;28;20200;-69
2023/05/17 03:36:43;;;;;;;1.95;1.10;;;5.60;99.90;;;;;;5049252;28;20225;-69
2023/05/17 03:39:09;;;;;;;1.60;1.50;;;5.60;99.90;;;;;;5049734;28;20224;-68
2023/05/17 03:41:36;;;;;;;1.35;1.25;;;5.50;99.90;;;;;;5049799;28;20207;-68
2023/05/17 03:44:05;;;;;;;2.17;1.10;;;5.50;99.90;;;;;;5069210;28;20204;-68
2023/05/17 03:46:31;;;;;;;1.00;0.90;;;5.50;99.90;;;;;;5069577;28;20228;-69
2023/05/17 03:48:58;;;;;;;1.48;1.23;;;5.50;99.90;;;;;;5069373;28;20193;-68
2023/05/17 03:51:25;;;;;;;1.60;1.50;;;5.50;99.90;;;;;;5069639;28;20598;-69
2023/05/17 03:53:57;;;;;;;1.73;1.50;;;5.50;99.90;;;;;;5069329;28;20266;-68
2023/05/17 03:56:24;;;;;;;1.40;1.20;;;5.50;99.90;;;;;;5069254;28;20227;-69
2023/05/17 03:58:51;;;;;;;1.30;1.10;;;5.50;99.90;;;;;;5069181;28;20212;-68
2023/05/17 04:01:20;;;;;;;3.58;1.27;;;5.50;99.90;;;;;;5069423;28;20228;-69
2023/05/17 04:03:46;;;;;;;3.25;1.45;;;5.50;99.90;;;;;;5069151;28;20224;-69
2023/05/17 04:06:14;;;;;;;1.80;1.38;;;5.40;99.90;;;;;;5069162;28;20247;-68
2023/05/17 04:08:41;;;;;;;1.42;1.23;;;5.40;99.90;;;;;;5069372;28;20196;-69
2023/05/17 04:11:11;;;;;;;1.85;1.20;;;5.30;99.90;;;;;;5051005;28;20573;-69
2023/05/17 04:13:38;;;;;;;2.58;1.60;;;5.30;99.90;;;;;;5049564;28;20648;-69
2023/05/17 04:16:06;;;;;;;1.92;1.55;;;5.20;99.90;;;;;;5060357;28;20691;-68
2023/05/17 04:18:36;;;;;;;2.03;1.33;;;5.20;99.90;;;;;;5069526;28;20216;-69
2023/05/17 04:21:02;;;;;;;1.75;1.45;;;5.10;99.90;;;;;;5053158;28;20200;-69
2023/05/17 04:23:29;;;;;;;2.22;1.45;;;5.10;99.90;;;;;;5035455;28;20289;-69
2023/05/17 04:25:56;;;;;;;4.95;2.20;;;5.10;99.90;;;;;;5045897;28;20208;-68
2023/05/17 04:28:23;;;;;;;1.65;1.50;;;5.10;99.90;;;;;;5037712;28;20200;-69
2023/05/17 04:30:51;;;;;;;1.50;1.40;;;5.10;99.90;;;;;;5047844;28;20219;-69
2023/05/17 04:33:17;;;;;;;1.60;1.20;;;5.10;99.90;;;;;;5046329;28;20197;-69
2023/05/17 04:35:46;;;;;;;1.35;1.10;;;5.20;99.90;;;;;;5043087;28;20222;-69
2023/05/17 04:38:13;;;;;;;3.42;1.48;;;5.20;99.90;;;;;;5037887;28;20312;-68
2023/05/17 04:40:40;;;;;;;1.60;1.50;;;5.20;99.90;;;;;;5039333;28;20280;-69
2023/05/17 04:43:06;;;;;;;3.50;1.60;;;5.20;99.90;;;;;;5044554;28;20842;-69
2023/05/17 04:45:33;;;;;;;2.92;1.60;;;5.20;99.90;;;;;;5037895;28;20309;-69
2023/05/17 04:48:00;;;;;;;3.35;1.52;;;5.30;99.90;;;;;;5041441;28;20240;-70
2023/05/17 04:50:27;;;;;;;1.98;1.60;;;5.30;99.90;;;;;;5037752;28;20301;-69
2023/05/17 04:52:55;;;;;;;1.95;1.60;;;5.40;99.90;;;;;;5044111;28;20201;-68
2023/05/17 04:55:21;;;;;;;1.55;1.45;;;5.50;99.90;;;;;;5041911;28;20228;-69
2023/05/17 04:57:48;;;;;;;2.25;1.55;;;5.50;99.90;;;;;;5040108;28;20592;-69
2023/05/17 05:00:16;;;;;;;1.90;1.50;;;5.60;99.90;;;;;;5042508;28;20229;-69
2023/05/17 05:02:43;;;;;;;2.45;1.75;;;5.70;99.90;;;;;;5039322;28;20193;-69
2023/05/17 05:05:10;;;;;;;1.58;1.30;;;5.80;99.90;;;;;;5040437;28;20699;-69
2023/05/17 05:07:38;;;;;;;4.03;2.35;;;5.90;99.90;;;;;;5041486;28;20313;-69
2023/05/17 05:10:07;;;;;;;1.92;1.58;;;5.90;99.90;;;;;;5043769;28;20312;-68
2023/05/17 05:12:34;;;;;;;2.53;1.50;;;6.00;99.90;;;;;;5040809;28;20193;-69
2023/05/17 05:15:01;;;;;;;1.92;1.50;;;6.10;99.90;;;;;;5039770;28;20204;-68
2023/05/17 05:17:30;;;;;;;1.52;1.42;;;6.20;99.90;;;;;;5043060;28;20705;-69
2023/05/17 05:19:57;;;;;;;1.90;1.55;;;6.20;99.90;;;;;;5046322;28;20213;-69
2023/05/17 05:22:24;;;;;;;2.03;1.75;;;6.30;99.90;;;;;;5038015;28;20198;-69
2023/05/17 05:24:51;;;;;;;3.17;1.60;;;6.40;99.90;;;;;;5038852;28;20229;-69
2023/05/17 05:27:19;;;;;;;1.98;1.77;;;6.40;99.90;;;;;;5036571;28;20222;-69
2023/05/17 05:29:46;;;;;;;1.80;1.25;;;6.50;99.90;;;;;;5045184;28;20289;-69
2023/05/17 05:32:14;;;;;;;2.08;1.80;;;6.60;99.90;;;;;;5039970;28;20211;-69
2023/05/17 05:34:40;;;;;;;2.20;1.33;;;6.80;99.90;;;;;;5037613;28;20620;-69
2023/05/17 05:37:07;;;;;;;3.08;1.80;;;6.80;99.90;;;;;;5039358;28;20601;-69
2023/05/17 05:39:34;;;;;;;3.17;1.50;;;6.90;99.90;;;;;;5040357;28;20213;-69
2023/05/17 05:42:00;;;;;;;1.92;1.48;;;7.00;99.90;;;;;;5041547;28;20197;-69
2023/05/17 05:44:28;;;;;;;1.65;1.52;;;7.00;99.90;;;;;;5036461;28;20551;-69
2023/05/17 05:46:55;;;;;;;2.05;1.70;;;7.00;99.90;;;;;;5035974;28;20229;-69
2023/05/17 05:49:22;;;;;;;4.07;1.70;;;7.10;99.90;;;;;;5035779;28;20201;-69
2023/05/17 05:51:48;;;;;;;6.18;1.83;;;7.20;99.90;;;;;;5038488;28;20868;-69
2023/05/17 05:54:15;;;;;;;1.85;1.42;;;7.20;99.90;;;;;;5038486;28;20228;-69
2023/05/17 05:56:42;;;;;;;2.35;1.30;;;7.20;99.90;;;;;;5043933;28;20221;-69
2023/05/17 05:59:09;;;;;;;3.05;1.55;;;7.20;99.90;;;;;;5038789;28;20608;-69
2023/05/17 06:01:37;;;;;;;6.03;1.75;;;7.30;99.90;;;;;;5040350;28;20673;-69
2023/05/17 06:04:04;;;;;;;2.58;1.63;;;7.40;99.90;;;;;;5042675;28;20662;-68
2023/05/17 06:06:31;;;;;;;2.03;1.48;;;7.50;99.90;;;;;;5044162;28;20287;-69
2023/05/17 06:08:58;;;;;;;1.48;1.38;;;7.60;99.90;;;;;;5043780;28;20194;-70
2023/05/17 06:11:26;;;;;;;2.00;1.30;;;7.70;99.90;;;;;;5040507;28;20209;-69
2023/05/17 06:13:53;;;;;;;4.30;1.80;;;7.80;99.90;;;;;;5047655;28;20581;-69
2023/05/17 06:16:19;;;;;;;3.78;1.35;;;7.90;99.90;;;;;;5051445;28;20224;-69
2023/05/17 06:18:47;;;;;;;1.55;1.45;;;8.00;99.90;;;;;;5041724;28;20222;-69
2023/05/17 06:21:15;;;;;;;2.30;1.60;;;8.20;99.90;;;;;;5037791;28;20205;-70
2023/05/17 06:23:41;;;;;;;2.45;2.08;;;8.20;99.90;;;;;;5040900;28;20201;-69
2023/05/17 06:26:09;;;;;;;2.08;1.55;;;8.30;99.90;;;;;;5040092;28;20209;-70
2023/05/17 06:28:36;;;;;;;3.05;2.33;;;8.30;99.90;;;;;;5037394;28;20213;-69
2023/05/17 06:31:03;;;;;;;5.72;2.00;;;8.40;99.90;;;;;;5042478;28;20198;-69
2023/05/17 06:33:29;;;;;;;2.25;1.30;;;8.50;99.90;;;;;;5037606;28;20681;-69
2023/05/17 06:35:58;;;;;;;1.98;1.60;;;8.60;99.90;;;;;;5041074;28;20210;-69
2023/05/17 06:38:25;;;;;;;2.38;1.73;;;8.60;99.90;;;;;;5046657;28;20196;-69
2023/05/17 06:40:52;;;;;;;3.38;2.00;;;8.70;99.90;;;;;;5049594;28;20462;-71
2023/05/17 06:43:19;;;;;;;2.55;1.63;;;8.70;99.90;;;;;;5065904;28;20207;-69
2023/05/17 06:45:46;;;;;;;2.33;1.63;;;8.80;99.90;;;;;;5070121;28;20611;-69
2023/05/17 06:48:12;;;;;;;6.60;2.10;;;8.90;99.90;;;;;;5069130;28;20352;-69
2023/05/17 06:50:39;;;;;;;3.67;2.72;;;9.00;99.90;;;;;;5070364;28;20200;-69
2023/05/17 06:53:07;;;;;;;3.30;2.08;;;9.10;99.90;;;;;;5070097;28;20192;-71
2023/05/17 06:55:34;;;;;;;3.13;1.90;;;9.30;99.90;;;;;;5070246;28;20204;-69
2023/05/17 06:58:00;;;;;;;2.63;2.22;;;9.40;99.90;;;;;;5069864;28;20216;-70
2023/05/17 07:00:27;;;;;;;6.03;2.42;;;9.40;99.90;;;;;;5069825;28;20270;-69
2023/05/17 07:02:54;;;;;;;1.73;1.60;;;9.50;99.90;;;;;;5069890;28;20257;-70
2023/05/17 07:05:22;;;;;;;3.70;2.00;;;9.50;99.90;;;;;;5057541;28;20200;-70
2023/05/17 07:07:49;;;;;;;3.80;1.85;;;9.60;99.90;;;;;;5049982;28;20761;-70
2023/05/17 07:10:17;;;;;;;2.55;2.05;;;9.60;99.90;;;;;;5049879;28;20193;-70
2023/05/17 07:12:44;;;;;;;2.88;2.17;;;9.60;99.90;;;;;;5050081;28;20194;-69
2023/05/17 07:15:11;;;;;;;4.45;2.40;;;9.60;99.90;;;;;;5049443;28;20295;-69
2023/05/17 07:17:38;;;;;;;2.08;1.70;;;9.60;99.90;;;;;;5047915;28;20221;-70
2023/05/17 07:20:06;;;;;;;6.65;2.50;;;9.80;99.90;;;;;;5051967;28;20236;-69
2023/05/17 07:22:32;;;;;;;3.70;2.20;;;9.90;99.90;;;;;;5047822;28;20232;-70
2023/05/17 07:24:59;;;;;;;3.13;2.22;;;9.90;99.90;;;;;;5066698;28;20196;-69
2023/05/17 07:27:27;;;;;;;3.63;2.35;;;9.90;99.90;;;;;;5069610;28;20212;-69
2023/05/17 07:29:54;;;;;;;4.55;2.53;;;10.00;99.90;;;;;;5069339;28;20197;-69
2023/05/17 07:32:21;;;;;;;2.95;1.75;;;10.00;99.90;;;;;;5063946;28;20203;-69
2023/05/17 07:34:47;;;;;;;4.18;2.08;;;10.10;99.90;;;;;;5040261;28;20763;-69
2023/05/17 07:37:14;;;;;;;4.20;2.58;;;10.20;99.90;;;;;;5048966;28;20282;-69
2023/05/17 07:39:41;;;;;;;2.95;2.10;;;10.30;99.90;;;;;;5049623;28;20708;-69
2023/05/17 07:42:07;;;;;;;3.17;2.35;;;10.50;99.90;;;;;;5049196;28;20201;-69
2023/05/17 07:44:35;;;;;;;5.90;2.20;;;10.60;99.90;;;;;;5049372;28;20205;-69
2023/05/17 07:47:02;;;;;;;2.70;2.05;;;10.70;99.90;;;;;;5049017;28;20271;-69
2023/05/17 07:49:30;;;;;;;4.45;2.05;;;10.90;99.90;;;;;;5049338;28;20201;-69
2023/05/17 07:51:57;;;;;;;2.80;1.90;;;10.90;99.90;;;;;;5049327;28;20664;-69
2023/05/17 07:54:25;;;;;;;3.83;2.25;;;11.00;99.90;;;;;;5048942;28;20231;-70
2023/05/17 07:56:54;;;;;;;2.80;1.95;;;11.10;99.90;;;;;;5049221;28;20213;-71
2023/05/17 07:59:20;;;;;;;2.28;2.08;;;11.20;99.90;;;;;;5062946;28;20227;-69
2023/05/17 08:01:49;;;;;;;6.15;2.83;;;11.40;99.90;;;;;;5070777;28;20192;-69
2023/05/17 08:04:16;;;;;;;2.45;2.20;;;11.60;99.90;;;;;;5051966;28;20210;-69
2023/05/17 08:06:44;;;;;;;4.20;2.45;;;11.70;99.90;;;;;;5054559;28;20225;-69
2023/05/17 08:09:11;;;;;;;5.45;2.50;;;11.70;99.90;;;;;;5072918;28;20266;-68
2023/05/17 08:11:44;;;;;;;3.47;2.22;;;11.70;99.90;;;;;;5073922;28;20199;-69
2023/05/17 08:14:11;;;;;;;2.60;2.08;;;11.80;99.90;;;;;;5073374;28;20572;-69
2023/05/17 08:16:38;;;;;;;4.20;3.30;;;12.00;99.90;;;;;;5073262;28;20220;-69
2023/05/17 08:19:06;;;;;;;3.33;1.92;;;12.20;99.90;;;;;;5063605;28;20205;-69
2023/05/17 08:21:33;;;;;;;3.40;2.40;;;12.40;99.90;;;;;;5051779;28;20197;-69
2023/05/17 08:23:59;;;;;;;3.63;2.40;;;12.60;99.90;;;;;;5052530;28;20606;-69
2023/05/17 08:26:26;;;;;;;4.45;2.65;;;12.60;99.90;;;;;;5052515;28;20626;-69
2023/05/17 08:28:53;;;;;;;5.17;2.60;;;12.70;99.90;;;;;;5049613;28;20605;-69
2023/05/17 08:31:19;;;;;;;5.03;2.23;;;12.50;99.90;;;;;;5071932;28;20459;-69
2023/05/17 08:33:46;;;;;;;2.47;1.90;;;12.30;99.90;;;;;;5072290;28;20516;-69
2023/05/17 08:36:14;;;;;;;6.28;1.92;;;12.50;99.90;;;;;;5042140;28;20495;-69
2023/05/17 08:38:41;;;;;;;3.10;2.00;;;12.80;99.90;;;;;;5041321;28;20201;-69
2023/05/17 08:41:09;;;;;;;5.73;2.33;;;13.10;99.90;;;;;;5043736;28;20490;-69
2023/05/17 08:43:36;;;;;;;3.97;2.60;;;13.40;99.90;;;;;;5052851;28;20474;-69
2023/05/17 08:46:03;;;;;;;3.13;2.83;;;13.70;99.90;;;;;;5052504;28;20558;-69
2023/05/17 08:48:30;;;;;;;2.97;2.57;;;14.00;99.90;;;;;;5052753;28;20463;-69
2023/05/17 08:50:58;;;;;;;2.40;2.03;;;14.00;99.90;;;;;;5052284;28;20562;-69
2023/05/17 08:53:27;;;;;;;5.90;2.37;;;13.90;99.90;;;;;;5052144;28;20467;-69
2023/05/17 08:55:59;;;;;;;3.37;2.83;;;13.80;99.90;;;;;;5052350;28;20466;-68
2023/05/17 08:58:31;;;;;;;5.37;3.10;;;13.70;99.90;;;;;;5052290;28;20566;-69
2023/05/17 09:00:59;;;;;;;4.80;2.60;;;13.80;99.90;;;;;;5051996;28;20499;-69
2023/05/17 09:03:29;;;;;;;3.10;2.53;;;13.90;99.90;;;;;;5050844;28;20467;-69
2023/05/17 09:05:56;;;;;;;3.50;2.50;;;13.80;99.90;;;;;;5051859;28;20981;-69
2023/05/17 09:08:23;;;;;;;3.10;2.00;;;13.70;99.90;;;;;;5051892;28;20463;-69
2023/05/17 09:10:51;;;;;;;2.83;2.53;;;13.40;99.90;;;;;;5051197;28;20463;-70
2023/05/17 09:13:18;;;;;;;2.53;2.17;;;13.40;99.90;;;;;;5051743;28;20562;-68
2023/05/17 09:15:48;;;;;;;3.13;2.30;;;13.60;99.90;;;;;;5051824;28;20463;-68
2023/05/17 09:18:15;;;;;;;5.47;2.77;;;13.70;99.90;;;;;;5051591;28;20835;-68
2023/05/17 09:20:42;;;;;;;4.33;2.50;;;13.60;99.90;;;;;;5051786;28;20533;-68
2023/05/17 09:23:12;;;;;;;3.40;2.50;;;13.20;99.90;;;;;;5051521;28;20554;-68
2023/05/17 09:25:38;;;;;;;3.20;2.50;;;13.20;99.90;;;;;;5051833;28;20827;-69
2023/05/17 09:28:07;;;;;;;4.93;2.50;;;13.30;99.90;;;;;;5051389;28;20484;-68
2023/05/17 09:30:36;;;;;;;4.90;2.80;;;13.50;99.90;;;;;;5051538;28;20459;-68
2023/05/17 09:33:05;;;;;;;4.13;2.23;;;13.90;99.90;;;;;;5051522;28;20512;-68
2023/05/17 09:35:33;;;;;;;2.67;2.40;;;14.00;99.90;;;;;;5051545;28;20885;-68
2023/05/17 09:38:06;;;;;;;3.40;2.30;;;14.00;99.90;;;;;;5051297;28;20483;-69
2023/05/17 09:40:33;;;;;;;4.43;2.87;;;14.20;99.90;;;;;;5051380;28;20484;-68
2023/05/17 09:43:00;;;;;;;3.00;2.20;;;14.50;99.90;;;;;;5051412;28;20537;-68
2023/05/17 09:45:31;;;;;;;3.23;2.13;;;15.10;99.90;;;;;;5051090;28;20506;-68
2023/05/17 09:47:58;;;;;;;3.20;2.30;;;15.80;99.90;;;;;;5051520;28;20529;-69
2023/05/17 09:50:25;;;;;;;3.40;2.27;;;16.30;99.90;;;;;;5050764;28;20951;-68
2023/05/17 09:52:52;;;;;;;4.57;2.70;;;16.50;99.90;;;;;;5051436;28;20578;-68
2023/05/17 09:55:26;;;;;;;3.23;2.30;;;16.90;99.90;;;;;;5050551;28;20483;-69
2023/05/17 09:57:53;;;;;;;3.83;2.60;;;16.70;99.90;;;;;;5051158;28;20540;-68
2023/05/17 10:00:22;;;;;;;2.63;2.33;;;16.70;99.90;;;;;;5050604;28;20506;-68
2023/05/17 10:02:51;;;;;;;3.43;2.10;;;16.40;99.90;;;;;;5051261;28;20515;-68
2023/05/17 10:05:18;;;;;;;2.87;2.20;;;16.20;99.90;;;;;;5050561;28;20872;-69
2023/05/17 10:07:48;;;;;;;3.87;2.90;;;16.60;99.90;;;;;;5051037;28;20785;-69
2023/05/17 10:10:18;;;;;;;2.80;2.10;;;16.80;99.90;;;;;;5050702;28;21050;-69
2023/05/17 10:12:45;;;;;;;3.07;2.33;;;16.40;99.90;;;;;;5051069;28;20478;-69
2023/05/17 10:15:14;;;;;;;3.10;2.30;;;16.30;99.90;;;;;;5050242;28;20455;-69
2023/05/17 10:17:41;;;;;;;2.33;1.90;;;16.60;99.90;;;;;;5050973;28;20479;-69
2023/05/17 10:20:11;;;;;;;3.03;2.60;;;17.00;99.90;;;;;;5050385;28;20491;-69
2023/05/17 10:22:38;;;;;;;2.90;2.13;;;17.30;99.90;;;;;;5050673;28;20467;-69
2023/05/17 10:25:06;;;;;;;2.70;2.23;;;17.50;99.90;;;;;;5050151;28;20463;-70
2023/05/17 10:27:33;;;;;;;2.90;2.50;;;17.90;99.90;;;;;;5050605;28;21032;-69
2023/05/17 10:30:00;;;;;;;4.03;2.60;;;18.30;98.70;;;;;;5050488;28;20452;-69
2023/05/17 10:32:29;;;;;;;3.00;2.10;;;18.20;97.10;;;;;;5050444;28;20464;-69
2023/05/17 10:34:57;;;;;;;2.83;2.30;;;17.70;98.80;;;;;;5050203;28;20467;-69
2023/05/17 10:37:28;;;;;;;3.70;2.33;;;17.20;98.20;;;;;;5049985;28;20514;-69
2023/05/17 10:39:56;;;;;;;4.37;2.60;;;17.30;99.90;;;;;;5045893;28;20495;-68
2023/05/17 10:42:23;;;;;;;3.00;2.50;;;17.50;98.00;;;;;;5050030;28;20522;-68
2023/05/17 10:44:53;;;;;;;3.57;2.60;;;17.80;99.90;;;;;;5050165;28;20460;-68
2023/05/17 10:47:20;;;;;;;3.47;2.40;;;17.90;98.00;;;;;;5050178;28;20483;-67
2023/05/17 10:49:50;;;;;;;2.00;1.80;;;17.60;98.70;;;;;;5050417;28;20492;-68
2023/05/17 10:52:22;;;;;;;3.03;2.30;;;17.10;99.10;;;;;;5051947;28;20904;-67
2023/05/17 10:54:51;;;;;;;3.53;2.53;;;16.60;99.20;;;;;;5069995;28;20505;-68
2023/05/17 10:57:31;;;;;;;3.77;2.17;;;16.30;99.60;;;;;;5057849;28;20990;-69
2023/05/17 10:59:59;;;;;;;5.17;2.40;;;16.30;99.50;;;;;;5049620;28;20463;-69
2023/05/17 11:02:27;;;;;;;3.67;2.37;;;16.30;99.40;;;;;;5050529;28;20464;-68
2023/05/17 11:04:55;;;;;;;2.93;2.40;;;16.50;99.90;;;;;;5061885;28;20467;-68
2023/05/17 11:07:28;;;;;;;3.67;2.63;;;16.70;99.90;;;;;;5068609;28;20945;-68
2023/05/17 11:10:05;;;;;;;3.23;2.43;;;16.90;99.90;;;;;;5061986;28;20455;-69
2023/05/17 11:12:36;;;;;;;3.57;3.03;;;17.30;99.90;;;;;;5053890;28;20454;-69
2023/05/17 11:15:07;;;;;;;2.77;2.20;;;17.90;98.00;;;;;;5061911;28;20458;-69
2023/05/17 11:17:36;;;;;;;3.43;2.60;;;18.10;98.60;;;;;;5050982;28;21002;-69
2023/05/17 11:20:09;;;;;;;2.93;2.37;;;18.10;97.90;;;;;;5057990;28;20487;-69
2023/05/17 11:22:38;;;;;;;3.77;3.10;;;17.70;98.60;;;;;;5054737;28;20463;-68
2023/05/17 11:25:11;;;;;;;2.87;2.20;;;17.20;99.20;;;;;;5061875;28;20459;-68
2023/05/17 11:27:43;;;;;;;3.93;2.60;;;16.80;99.50;;;;;;5058581;28;20482;-68
2023/05/17 11:30:21;;;;;;;3.03;2.60;;;16.20;98.50;;;;;;5058715;28;20509;-68
2023/05/17 11:32:50;;;;;;;4.23;2.60;;;16.00;99.70;;;;;;5055989;28;20688;-68
2023/05/17 11:35:18;;;;;;;3.60;2.70;;;15.90;99.90;;;;;;5071589;28;21079;-68
2023/05/17 11:37:45;;;;;;;3.57;2.77;;;15.90;99.90;;;;;;5060745;28;20511;-68
2023/05/17 11:40:14;;;;;;;3.20;2.90;;;16.00;99.70;;;;;;5053482;28;20458;-68
2023/05/17 11:42:41;;;;;;;3.80;2.30;;;15.80;99.30;;;;;;5054165;28;20932;-68
2023/05/17 11:45:08;;;;;;;5.07;2.50;;;15.80;99.90;;;;;;5061790;28;20462;-68
2023/05/17 11:47:40;;;;;;;3.10;2.50;;;15.60;99.60;;;;;;5053220;28;20479;-68
2023/05/17 11:50:08;;;;;;;3.50;2.77;;;15.40;99.40;;;;;;5053224;28;20606;-69
2023/05/17 11:52:34;;;;;;;4.43;2.67;;;15.50;99.90;;;;;;5045320;28;20521;-68
2023/05/17 11:55:01;;;;;;;3.90;2.40;;;15.30;99.40;;;;;;5053198;28;20460;-69
2023/05/17 11:57:32;;;;;;;3.70;2.47;;;15.10;99.40;;;;;;5052811;28;20498;-68
2023/05/17 12:00:00;;;;;;;2.73;2.53;;;14.90;99.90;;;;;;5053240;28;20822;-68
2023/05/17 12:02:27;;;;;;;5.70;3.10;;;14.70;99.90;;;;;;5052861;28;20484;-68
2023/05/17 12:04:54;;;;;;;3.67;2.20;;;14.50;99.90;;;;;;5067851;28;20486;-68
2023/05/17 12:07:21;;;;;;;3.60;2.40;;;14.20;99.90;;;;;;5073029;28;20508;-68
2023/05/17 12:09:48;;;;;;;3.80;2.30;;;14.10;99.90;;;;;;5072882;28;20458;-68
2023/05/17 12:12:16;;;;;;;3.00;2.13;;;14.00;99.90;;;;;;5072777;28;20533;-68
2023/05/17 12:14:46;;;;;;;4.20;2.87;;;13.80;99.90;;;;;;5072687;28;20992;-68
2023/05/17 12:17:20;;;;;;;3.03;2.40;;;13.80;99.90;;;;;;5072981;28;21088;-68
2023/05/17 12:19:47;;;;;;;3.30;2.23;;;14.00;99.90;;;;;;5072677;28;20787;-68
2023/05/17 12:22:14;;;;;;;9.03;3.90;;;13.90;99.90;;;;;;5072657;28;20843;-68
2023/05/17 12:24:42;;;;;;;3.63;2.00;;;14.00;99.90;;;;;;5072374;28;20459;-68
2023/05/17 12:27:09;;;;;;;2.60;2.30;;;14.00;99.90;;;;;;5073024;28;20478;-68
2023/05/17 12:29:36;;;;;;;3.87;1.87;;;14.00;99.90;;;;;;5072421;28;20553;-68
2023/05/17 12:32:05;;;;;;;3.43;2.73;;;14.10;99.90;;;;;;5073028;28;20545;-68
2023/05/17 12:34:32;;;;;;;5.13;2.53;;;14.20;99.90;;;;;;5071771;28;20470;-68
2023/05/17 12:36:59;;;;;;;3.83;2.60;;;14.30;99.90;;;;;;5072770;28;21050;-68
2023/05/17 12:39:26;;;;;;;3.50;1.80;;;14.40;99.90;;;;;;5071989;28;20466;-68
2023/05/17 12:41:53;;;;;;;3.63;2.43;;;14.70;99.90;;;;;;5072733;28;20474;-68
2023/05/17 12:44:20;;;;;;;3.83;2.50;;;15.00;99.90;;;;;;5061431;28;20463;-68
2023/05/17 12:46:52;;;;;;;3.80;2.80;;;15.10;99.90;;;;;;5051891;28;20486;-68
2023/05/17 12:49:21;;;;;;;3.40;3.10;;;15.20;99.90;;;;;;5052108;28;20930;-68
2023/05/17 12:51:48;;;;;;;3.43;2.53;;;15.40;99.50;;;;;;5052549;28;20485;-68
2023/05/17 12:54:26;;;;;;;5.70;2.70;;;15.40;99.90;;;;;;5051885;28;20902;-68
2023/05/17 12:56:53;;;;;;;3.63;2.50;;;15.80;99.70;;;;;;5052403;28;20479;-68